Terminal Aerodrome Forecast
Issued by NWS

Home | Current Version | Previous Version | Text Only | Print | Product List | Glossary On
Versions: 1 2 3 4 5 6 7 8 9 10 11 12 13
418
FTUS45 KABQ 230540
TAFAEG
TAF
KAEG 230540Z 2306/2406 13012G21KT P6SM FEW250
     FM230900 11010KT P6SM FEW250
     FM231700 17011G19KT P6SM FEW250
     FM232000 20015G25KT P6SM FEW250
     FM240200 21011KT P6SM SCT250=

USA.gov is the U.S. government's official web portal to all federal, state and local government web resources and services.